createdAt,value
2022-07-29T00:01:53.564Z,77.28
2022-07-29T00:04:22.356Z,77.70
2022-07-29T00:06:50.547Z,78.55
2022-07-29T00:09:18.178Z,79.57
2022-07-29T00:11:51.435Z,78.83
2022-07-29T00:14:20.464Z,77.47
2022-07-29T00:16:48.519Z,77.87
2022-07-29T00:19:16.413Z,80.22
2022-07-29T00:21:47.396Z,81.91
2022-07-29T00:24:16.064Z,81.24
2022-07-29T00:26:44.215Z,81.85
2022-07-29T00:29:33.612Z,82.52
2022-07-29T00:32:08.826Z,81.71
2022-07-29T00:34:53.808Z,80.66
2022-07-29T00:37:22.832Z,81.03
2022-07-29T00:39:50.866Z,82.10
2022-07-29T00:42:18.917Z,81.92
2022-07-29T00:44:51.422Z,81.46
2022-07-29T00:47:21.149Z,80.28
2022-07-29T00:49:50.614Z,80.57
2022-07-29T00:52:18.564Z,81.34
2022-07-29T00:54:46.265Z,82.05
2022-07-29T00:57:14.406Z,82.90
2022-07-29T00:59:42.311Z,84.26
2022-07-29T01:02:10.495Z,83.09
2022-07-29T01:04:40.601Z,80.96
2022-07-29T01:07:09.087Z,82.05
2022-07-29T01:09:46.747Z,81.59
2022-07-29T01:12:19.338Z,82.16
2022-07-29T01:14:47.516Z,80.46
2022-07-29T01:17:18.939Z,81.85
2022-07-29T01:20:00.843Z,83.07
2022-07-29T01:22:31.050Z,82.22
2022-07-29T01:25:08.112Z,83.56
2022-07-29T01:27:41.795Z,82.85
2022-07-29T01:30:11.954Z,83.42
2022-07-29T01:32:44.235Z,81.70
2022-07-29T01:35:13.471Z,80.37
2022-07-29T01:37:44.364Z,80.87
2022-07-29T01:40:16.601Z,80.94
2022-07-29T01:42:45.520Z,81.54
2022-07-29T01:45:16.283Z,80.22
2022-07-29T01:47:46.628Z,81.20
2022-07-29T01:50:17.661Z,79.27
2022-07-29T01:52:46.756Z,79.16
2022-07-29T01:55:18.357Z,78.48
2022-07-29T01:57:48.859Z,78.60
2022-07-29T02:00:21.189Z,78.65
2022-07-29T02:02:49.047Z,79.82
2022-07-29T02:05:20.233Z,78.59
2022-07-29T02:07:48.836Z,77.35
2022-07-29T02:10:17.008Z,76.09
2022-07-29T02:12:50.756Z,76.10
2022-07-29T02:15:20.384Z,77.41
2022-07-29T02:17:50.114Z,77.39
2022-07-29T02:20:20.173Z,76.83
2022-07-29T02:22:48.665Z,79.41
2022-07-29T02:25:20.253Z,79.45
2022-07-29T02:27:49.621Z,78.95
2022-07-29T02:30:18.100Z,79.12
2022-07-29T02:32:47.430Z,76.94
2022-07-29T02:35:18.449Z,76.26
2022-07-29T02:38:07.123Z,77.72
2022-07-29T02:40:35.242Z,77.08
2022-07-29T02:43:05.198Z,76.61
2022-07-29T02:45:33.058Z,76.25
2022-07-29T02:48:02.424Z,75.20
2022-07-29T02:50:31.767Z,76.07
2022-07-29T02:53:04.770Z,76.54
2022-07-29T02:55:33.792Z,78.41
2022-07-29T02:58:01.966Z,77.69
2022-07-29T03:00:29.997Z,76.82
2022-07-29T03:03:03.108Z,77.31
2022-07-29T03:05:32.889Z,79.37
2022-07-29T03:08:00.952Z,79.01
2022-07-29T03:10:31.536Z,78.44
2022-07-29T03:13:02.118Z,79.31
2022-07-29T03:15:31.588Z,77.94
2022-07-29T03:17:59.475Z,77.11
2022-07-29T03:20:27.808Z,76.07
2022-07-29T03:22:57.971Z,75.75
2022-07-29T03:25:25.945Z,76.58
2022-07-29T03:27:53.735Z,76.64
2022-07-29T03:30:23.858Z,76.73
2022-07-29T03:33:01.988Z,75.67
2022-07-29T03:35:30.910Z,77.04
2022-07-29T03:38:02.997Z,76.55
2022-07-29T03:40:33.412Z,76.28
2022-07-29T03:43:02.716Z,75.56
2022-07-29T03:45:34.545Z,74.70
2022-07-29T03:48:03.428Z,73.54
2022-07-29T03:50:31.708Z,74.19
2022-07-29T03:53:01.641Z,74.25
2022-07-29T03:55:30.441Z,75.06
2022-07-29T03:58:03.279Z,74.75
2022-07-29T04:00:31.278Z,75.60
2022-07-29T04:03:01.718Z,74.82
2022-07-29T04:05:30.979Z,74.21
2022-07-29T04:08:05.257Z,74.75
2022-07-29T04:10:34.121Z,74.13
2022-07-29T04:13:03.989Z,75.59
2022-07-29T04:15:35.152Z,76.81
2022-07-29T04:18:05.315Z,77.32
2022-07-29T04:20:33.576Z,76.62
2022-07-29T04:23:02.648Z,77.58
2022-07-29T04:25:31.269Z,78.78
2022-07-29T04:28:05.148Z,77.36
2022-07-29T04:30:36.527Z,75.94
2022-07-29T04:33:07.229Z,74.35
2022-07-29T04:35:38.644Z,74.83
2022-07-29T04:38:15.478Z,75.77
2022-07-29T04:40:47.153Z,73.04
2022-07-29T04:43:20.560Z,74.31
2022-07-29T04:45:53.669Z,75.66
2022-07-29T04:48:26.687Z,75.76
2022-07-29T04:50:56.699Z,77.49
2022-07-29T04:53:28.792Z,78.61
2022-07-29T04:55:56.858Z,78.72
2022-07-29T04:58:26.629Z,78.29
2022-07-29T05:00:54.506Z,79.33
2022-07-29T05:03:23.536Z,78.87
2022-07-29T05:05:51.283Z,79.23
2022-07-29T05:08:21.481Z,78.64
2022-07-29T05:10:51.722Z,79.76
2022-07-29T05:13:21.639Z,79.28
2022-07-29T05:15:50.258Z,78.04
2022-07-29T05:18:18.589Z,77.92
2022-07-29T05:20:47.911Z,77.83
2022-07-29T05:23:19.917Z,77.20
2022-07-29T05:25:48.235Z,77.82
2022-07-29T05:28:17.945Z,78.03
2022-07-29T05:30:51.965Z,77.98
2022-07-29T05:33:35.545Z,78.25
2022-07-29T05:36:07.684Z,78.96
2022-07-29T05:38:35.888Z,80.61
2022-07-29T05:41:03.921Z,79.11
2022-07-29T05:43:34.762Z,79.15
2022-07-29T05:46:05.441Z,78.68
2022-07-29T05:48:34.165Z,78.21
2022-07-29T05:51:02.445Z,77.55
2022-07-29T05:53:30.994Z,76.95
2022-07-29T05:56:00.215Z,75.58
2022-07-29T05:58:28.110Z,73.83
2022-07-29T06:01:00.246Z,73.65
2022-07-29T06:03:28.507Z,70.21
2022-07-29T06:05:56.206Z,70.39
2022-07-29T06:08:24.743Z,69.45
2022-07-29T06:10:53.336Z,69.90
2022-07-29T06:13:21.608Z,69.34
2022-07-29T06:15:49.887Z,69.37
2022-07-29T06:18:21.780Z,67.83
2022-07-29T06:20:49.476Z,69.46
2022-07-29T06:23:17.094Z,70.70
2022-07-29T06:25:44.899Z,72.66
2022-07-29T06:28:12.668Z,72.66
2022-07-29T06:30:41.014Z,72.69
2022-07-29T06:33:09.517Z,72.56
2022-07-29T06:35:43.262Z,72.77
2022-07-29T06:38:31.360Z,72.76
2022-07-29T06:41:02.754Z,70.32
2022-07-29T06:43:32.591Z,70.33
2022-07-29T06:46:02.524Z,70.24
2022-07-29T06:48:31.560Z,68.39
2022-07-29T06:51:05.574Z,69.83
2022-07-29T06:53:33.624Z,67.25
2022-07-29T06:56:03.225Z,67.38
2022-07-29T06:58:31.446Z,66.35
2022-07-29T07:00:59.458Z,66.82
2022-07-29T07:03:27.491Z,67.25
2022-07-29T07:05:55.958Z,65.63
2022-07-29T07:08:26.144Z,63.37
2022-07-29T07:10:54.052Z,62.26
2022-07-29T07:13:22.023Z,61.71
2022-07-29T07:15:51.755Z,62.18
2022-07-29T07:18:20.735Z,62.37
2022-07-29T07:20:48.959Z,64.44
2022-07-29T07:23:18.174Z,63.86
2022-07-29T07:25:47.486Z,62.99
2022-07-29T07:28:15.187Z,60.27
2022-07-29T07:30:42.877Z,59.91
2022-07-29T07:33:13.895Z,59.75
2022-07-29T07:35:41.843Z,58.78
2022-07-29T07:38:09.575Z,59.69
2022-07-29T07:40:38.537Z,59.08
2022-07-29T07:43:08.228Z,58.21
2022-07-29T07:45:38.216Z,58.79
2022-07-29T07:48:06.607Z,56.98
2022-07-29T07:50:34.738Z,54.89
2022-07-29T07:53:03.439Z,57.62
2022-07-29T07:55:47.476Z,56.63
2022-07-29T07:58:20.384Z,55.21
2022-07-29T08:00:51.119Z,55.72
2022-07-29T08:03:19.293Z,55.66
2022-07-29T08:05:47.844Z,55.09
2022-07-29T08:08:15.620Z,54.58
2022-07-29T08:10:57.257Z,56.16
2022-07-29T08:13:29.281Z,55.36
2022-07-29T08:16:01.308Z,55.80
2022-07-29T08:18:30.516Z,55.29
2022-07-29T08:21:01.258Z,54.03
2022-07-29T08:23:47.115Z,53.32
2022-07-29T08:26:16.616Z,53.70
2022-07-29T08:28:49.704Z,53.13
2022-07-29T08:31:17.650Z,53.58
2022-07-29T08:33:45.648Z,54.31
2022-07-29T08:36:14.280Z,53.22
2022-07-29T08:38:44.884Z,53.94
2022-07-29T08:41:12.994Z,54.48
2022-07-29T08:43:42.395Z,53.10
2022-07-29T08:46:12.320Z,54.13
2022-07-29T08:48:40.520Z,53.64
2022-07-29T08:51:09.154Z,55.25
2022-07-29T08:53:42.322Z,54.17
2022-07-29T08:56:10.729Z,54.66
2022-07-29T08:58:39.730Z,54.54
2022-07-29T09:01:12.515Z,53.65
2022-07-29T09:03:44.166Z,53.40
2022-07-29T09:06:14.862Z,53.42
2022-07-29T09:08:43.059Z,52.74
2022-07-29T09:11:13.241Z,51.23
2022-07-29T09:13:41.531Z,50.95
2022-07-29T09:16:31.617Z,51.60
2022-07-29T09:19:05.392Z,50.58
2022-07-29T09:21:53.563Z,49.61
2022-07-29T09:24:21.739Z,50.64
2022-07-29T09:26:49.711Z,49.35
2022-07-29T09:29:18.099Z,51.73
2022-07-29T09:31:47.676Z,49.82
2022-07-29T09:34:21.203Z,50.07
2022-07-29T09:36:51.520Z,49.41
2022-07-29T09:39:32.954Z,48.72
2022-07-29T09:42:04.748Z,49.83
2022-07-29T09:44:45.979Z,49.14
2022-07-29T09:47:16.199Z,49.35
2022-07-29T09:49:55.641Z,49.23
2022-07-29T09:52:23.793Z,49.18
2022-07-29T09:54:54.746Z,49.99
2022-07-29T09:57:31.427Z,50.93
2022-07-29T10:00:01.291Z,49.17
2022-07-29T10:02:33.387Z,49.05
2022-07-29T10:05:02.996Z,49.63
2022-07-29T10:07:49.409Z,48.96
2022-07-29T10:10:23.254Z,49.38
2022-07-29T10:12:52.192Z,48.99
2022-07-29T10:15:22.138Z,48.30
2022-07-29T10:17:56.952Z,48.42
2022-07-29T10:20:26.843Z,49.59
2022-07-29T10:22:55.505Z,50.10
2022-07-29T10:25:23.396Z,49.17
2022-07-29T10:27:52.184Z,49.66
2022-07-29T10:30:20.445Z,48.82
2022-07-29T10:33:00.624Z,49.50
2022-07-29T10:35:43.114Z,48.41
2022-07-29T10:38:32.250Z,49.70
2022-07-29T10:41:20.545Z,48.30
2022-07-29T10:43:51.395Z,49.54
2022-07-29T10:46:20.881Z,52.47
2022-07-29T10:49:06.545Z,54.09
2022-07-29T10:52:09.022Z,61.49
2022-07-29T10:54:42.504Z,64.35
2022-07-29T10:57:15.614Z,66.36
2022-07-29T10:59:44.220Z,64.18
2022-07-29T11:02:42.758Z,61.91
2022-07-29T11:05:15.964Z,61.84
2022-07-29T11:07:58.945Z,61.48
2022-07-29T11:10:32.224Z,63.11
2022-07-29T11:13:00.059Z,64.37
2022-07-29T11:15:28.678Z,64.73
2022-07-29T11:18:06.441Z,61.02
2022-07-29T11:20:36.461Z,60.60
2022-07-29T11:23:11.597Z,57.56
2022-07-29T11:25:50.977Z,55.76
2022-07-29T11:31:08.989Z,55.12
2022-07-29T11:33:56.459Z,54.10
2022-07-29T11:36:28.040Z,53.88
2022-07-29T11:38:56.542Z,59.74
2022-07-29T11:41:31.873Z,65.88
2022-07-29T11:44:01.689Z,65.87
2022-07-29T11:46:50.013Z,64.89
2022-07-29T11:49:22.108Z,66.78
2022-07-29T11:52:02.607Z,63.00
2022-07-29T11:54:33.175Z,59.41
2022-07-29T11:57:10.662Z,60.67
2022-07-29T11:59:42.620Z,59.27
2022-07-29T12:02:37.129Z,60.62
2022-07-29T12:05:00.626Z,60.68
2022-07-29T12:07:39.488Z,60.29
2022-07-29T12:10:11.374Z,64.36
2022-07-29T12:13:00.246Z,65.57
2022-07-29T12:15:45.534Z,64.85
2022-07-29T12:18:15.074Z,64.59
2022-07-29T12:20:43.413Z,64.60
2022-07-29T12:23:13.949Z,67.14
2022-07-29T12:25:44.769Z,66.00
2022-07-29T12:28:26.830Z,65.98
2022-07-29T12:30:59.590Z,67.09
2022-07-29T12:33:28.717Z,65.31
2022-07-29T12:36:17.286Z,67.05
2022-07-29T12:38:45.192Z,66.81
2022-07-29T12:41:18.674Z,66.79
2022-07-29T12:43:55.887Z,66.70
2022-07-29T12:46:23.636Z,68.39
2022-07-29T12:48:55.601Z,66.68
2022-07-29T12:51:33.379Z,66.43
2022-07-29T12:54:04.596Z,67.71
2022-07-29T12:56:45.300Z,67.20
2022-07-29T12:59:16.663Z,66.03
2022-07-29T13:01:45.912Z,67.13
2022-07-29T13:04:14.047Z,67.16
2022-07-29T13:06:46.134Z,68.47
2022-07-29T13:09:19.512Z,67.29
2022-07-29T13:11:48.837Z,68.04
2022-07-29T13:14:32.219Z,70.50
2022-07-29T13:17:03.637Z,68.59
2022-07-29T13:19:38.390Z,68.37
2022-07-29T13:22:06.394Z,68.98
2022-07-29T13:24:34.014Z,70.51
2022-07-29T13:27:01.745Z,71.88
2022-07-29T13:29:35.272Z,70.83
2022-07-29T13:32:03.003Z,69.76
2022-07-29T13:34:30.756Z,67.26
2022-07-29T13:36:58.527Z,66.83
2022-07-29T13:39:26.244Z,65.29
2022-07-29T13:41:57.522Z,63.44
2022-07-29T13:44:25.654Z,64.50
2022-07-29T13:46:54.945Z,64.37
2022-07-29T13:49:23.521Z,65.23
2022-07-29T13:51:51.641Z,66.28
2022-07-29T13:54:21.248Z,65.12
2022-07-29T13:56:49.883Z,66.39
2022-07-29T13:59:20.829Z,63.25
2022-07-29T14:01:49.019Z,60.96
2022-07-29T14:04:18.346Z,62.72
2022-07-29T14:06:46.061Z,62.92
2022-07-29T14:09:15.075Z,62.91
2022-07-29T14:11:44.963Z,63.07
2022-07-29T14:14:15.091Z,64.04
2022-07-29T14:16:47.573Z,64.16
2022-07-29T14:19:18.230Z,63.75
2022-07-29T14:21:46.383Z,62.32
2022-07-29T14:24:21.468Z,63.77
2022-07-29T14:26:49.548Z,61.91
2022-07-29T14:29:36.885Z,61.58
2022-07-29T14:32:08.917Z,61.78
2022-07-29T14:34:38.598Z,59.92
2022-07-29T14:37:07.258Z,60.77
2022-07-29T14:39:39.327Z,61.26
2022-07-29T14:42:11.584Z,58.50
2022-07-29T14:44:41.448Z,57.24
2022-07-29T14:47:09.282Z,57.04
2022-07-29T14:49:39.625Z,57.14
2022-07-29T14:52:09.311Z,59.50
2022-07-29T14:54:37.002Z,57.57
2022-07-29T14:57:04.819Z,57.32
2022-07-29T14:59:33.213Z,55.46
2022-07-29T15:02:01.651Z,57.44
2022-07-29T15:04:29.620Z,58.94
2022-07-29T15:06:58.961Z,58.76
2022-07-29T15:09:26.583Z,57.16
2022-07-29T15:11:55.192Z,57.39
2022-07-29T15:14:23.380Z,58.99
2022-07-29T15:16:52.725Z,56.88
2022-07-29T15:19:21.255Z,50.83
2022-07-29T15:21:49.291Z,56.89
2022-07-29T15:24:19.030Z,56.04
2022-07-29T15:26:47.185Z,55.75
2022-07-29T15:29:18.086Z,55.61
2022-07-29T15:31:48.356Z,55.12
2022-07-29T15:34:16.171Z,52.89
2022-07-29T15:36:52.422Z,53.76
2022-07-29T15:39:22.613Z,55.53
2022-07-29T15:41:50.438Z,54.54
2022-07-29T15:44:18.217Z,55.78
2022-07-29T15:47:03.405Z,55.97
2022-07-29T15:49:47.316Z,54.97
2022-07-29T15:52:24.938Z,54.38
2022-07-29T15:54:56.590Z,55.22
2022-07-29T15:57:24.776Z,55.04
2022-07-29T15:59:52.946Z,49.28
2022-07-29T16:02:20.749Z,50.00
2022-07-29T16:04:59.710Z,53.22
2022-07-29T16:07:31.740Z,49.18
2022-07-29T16:10:02.024Z,47.49
2022-07-29T16:12:30.322Z,47.62
2022-07-29T16:14:58.063Z,46.65
2022-07-29T16:17:29.938Z,46.00
2022-07-29T16:19:57.925Z,46.63
2022-07-29T16:22:25.899Z,46.28
2022-07-29T16:24:53.660Z,47.46
2022-07-29T16:27:27.096Z,46.32
2022-07-29T16:30:05.434Z,46.10
2022-07-29T16:32:33.598Z,45.41
2022-07-29T16:35:04.055Z,45.31
2022-07-29T16:37:36.630Z,45.25
2022-07-29T16:40:05.120Z,46.07
2022-07-29T16:42:46.715Z,45.20
2022-07-29T16:45:17.968Z,45.24
2022-07-29T16:47:49.018Z,45.39
2022-07-29T16:50:17.496Z,45.45
2022-07-29T16:52:45.199Z,45.64
2022-07-29T16:55:13.993Z,45.22
2022-07-29T16:57:44.241Z,45.34
2022-07-29T17:00:12.745Z,45.63
2022-07-29T17:02:40.444Z,45.14
2022-07-29T17:05:09.092Z,45.25
2022-07-29T17:07:39.461Z,44.98
2022-07-29T17:10:09.109Z,45.06
2022-07-29T17:12:40.877Z,44.47
2022-07-29T17:15:11.739Z,44.50
2022-07-29T17:17:55.390Z,45.46
2022-07-29T17:20:24.806Z,45.06
2022-07-29T17:22:56.488Z,45.35
2022-07-29T17:25:26.971Z,44.96
2022-07-29T17:28:00.554Z,44.77
2022-07-29T17:30:30.531Z,44.49
2022-07-29T17:32:59.280Z,44.40
2022-07-29T17:35:48.456Z,44.45
2022-07-29T17:38:16.339Z,44.33
2022-07-29T17:40:45.944Z,44.40
2022-07-29T17:43:13.698Z,44.21
2022-07-29T17:45:49.786Z,44.29
2022-07-29T17:48:21.286Z,44.44
2022-07-29T17:50:49.793Z,43.94
2022-07-29T17:53:17.545Z,45.22
2022-07-29T17:55:46.022Z,45.16
2022-07-29T17:58:13.876Z,44.94
2022-07-29T18:00:43.429Z,45.39
2022-07-29T18:03:11.507Z,44.79
2022-07-29T18:05:39.565Z,45.46
2022-07-29T18:08:07.905Z,44.32
2022-07-29T18:10:36.521Z,43.58
2022-07-29T18:13:05.884Z,43.23
2022-07-29T18:15:38.077Z,43.83
2022-07-29T18:18:10.074Z,43.94
2022-07-29T18:20:38.263Z,43.79
2022-07-29T18:23:06.190Z,42.68
2022-07-29T18:25:42.247Z,43.83
2022-07-29T18:28:10.001Z,44.09
2022-07-29T18:30:38.185Z,43.24
2022-07-29T18:33:24.297Z,43.30
2022-07-29T18:36:10.523Z,44.10
2022-07-29T18:38:52.969Z,44.52
2022-07-29T18:41:20.713Z,45.40
2022-07-29T18:43:59.785Z,44.76
2022-07-29T18:46:28.171Z,44.14
2022-07-29T18:48:59.658Z,44.15
2022-07-29T18:51:27.954Z,43.54
2022-07-29T18:53:56.343Z,43.77
2022-07-29T18:56:23.991Z,43.76
2022-07-29T18:59:04.886Z,44.25
2022-07-29T19:01:32.952Z,43.92
2022-07-29T19:04:04.963Z,44.64
2022-07-29T19:06:33.213Z,44.07
2022-07-29T19:09:02.053Z,44.10
2022-07-29T19:11:31.798Z,43.90
2022-07-29T19:13:59.800Z,44.67
2022-07-29T19:16:27.857Z,44.95
2022-07-29T19:18:56.104Z,44.12
2022-07-29T19:21:28.067Z,44.12
2022-07-29T19:24:01.390Z,45.03
2022-07-29T19:26:39.286Z,46.00
2022-07-29T19:29:08.467Z,45.57
2022-07-29T19:31:36.223Z,45.55
2022-07-29T19:34:03.970Z,46.14
2022-07-29T19:36:33.761Z,46.21
2022-07-29T19:39:02.185Z,46.04
2022-07-29T19:41:32.975Z,46.34
2022-07-29T19:44:00.907Z,46.34
2022-07-29T19:46:29.167Z,47.19
2022-07-29T19:48:57.088Z,46.82
2022-07-29T19:51:25.074Z,47.33
2022-07-29T19:53:54.114Z,47.71
2022-07-29T19:56:22.962Z,47.17
2022-07-29T19:58:52.055Z,46.60
2022-07-29T20:01:20.788Z,46.91
2022-07-29T20:03:48.497Z,46.32
2022-07-29T20:06:16.878Z,47.34
2022-07-29T20:08:45.574Z,47.31
2022-07-29T20:11:15.197Z,47.70
2022-07-29T20:13:42.831Z,48.48
2022-07-29T20:16:10.800Z,48.69
2022-07-29T20:18:40.321Z,48.43
2022-07-29T20:21:07.938Z,47.65
2022-07-29T20:23:35.628Z,47.74
2022-07-29T20:26:07.293Z,47.27
2022-07-29T20:28:45.325Z,46.04
2022-07-29T20:31:16.891Z,45.93
2022-07-29T20:33:44.727Z,45.89
2022-07-29T20:36:12.424Z,47.65
2022-07-29T20:38:40.772Z,47.88
2022-07-29T20:41:11.378Z,48.26
2022-07-29T20:43:40.973Z,48.17
2022-07-29T20:46:08.642Z,47.27
2022-07-29T20:48:40.794Z,47.96
2022-07-29T20:51:08.671Z,48.05
2022-07-29T20:53:36.581Z,47.60
2022-07-29T20:56:04.354Z,48.45
2022-07-29T20:58:32.772Z,48.73
2022-07-29T21:01:02.341Z,48.35
2022-07-29T21:03:44.304Z,48.75
2022-07-29T21:06:12.007Z,48.47
2022-07-29T21:08:39.661Z,48.61
2022-07-29T21:11:07.358Z,48.92
2022-07-29T21:13:39.527Z,49.36
2022-07-29T21:16:16.397Z,49.64
2022-07-29T21:18:46.486Z,49.85
2022-07-29T21:21:16.763Z,50.78
2022-07-29T21:23:46.766Z,50.50
2022-07-29T21:26:16.041Z,50.38
2022-07-29T21:28:45.662Z,50.33
2022-07-29T21:31:19.519Z,49.93
2022-07-29T21:33:47.731Z,50.47
2022-07-29T21:36:46.404Z,51.33
2022-07-29T21:39:07.310Z,50.35
2022-07-29T21:41:35.853Z,49.72
2022-07-29T21:44:05.550Z,52.01
2022-07-29T21:46:43.745Z,52.20
2022-07-29T21:49:17.108Z,52.46
2022-07-29T21:51:45.178Z,52.12
2022-07-29T21:54:15.212Z,52.85
2022-07-29T21:56:43.086Z,53.67
2022-07-29T21:59:18.825Z,54.97
2022-07-29T22:01:48.411Z,54.03
2022-07-29T22:04:20.972Z,56.53
2022-07-29T22:06:49.071Z,56.85
2022-07-29T22:09:16.803Z,56.60
2022-07-29T22:11:44.766Z,57.06
2022-07-29T22:14:12.513Z,57.44
2022-07-29T22:16:43.151Z,58.23
2022-07-29T22:19:12.629Z,58.92
2022-07-29T22:21:40.882Z,58.82
2022-07-29T22:24:11.446Z,60.00
2022-07-29T22:26:39.359Z,59.30
2022-07-29T22:29:07.018Z,59.72
2022-07-29T22:31:34.727Z,59.75
2022-07-29T22:34:05.679Z,58.42
2022-07-29T22:36:36.158Z,58.28
2022-07-29T22:39:04.288Z,58.89
2022-07-29T22:41:31.889Z,61.14
2022-07-29T22:44:03.517Z,62.37
2022-07-29T22:46:31.269Z,61.88
2022-07-29T22:48:59.474Z,62.37
2022-07-29T22:51:39.779Z,63.53
2022-07-29T22:54:13.432Z,61.98
2022-07-29T22:56:41.668Z,62.21
2022-07-29T22:59:14.288Z,61.47
2022-07-29T23:01:42.479Z,63.30
2022-07-29T23:04:10.434Z,62.43
2022-07-29T23:06:38.553Z,63.99
2022-07-29T23:09:06.376Z,63.46
2022-07-29T23:11:36.132Z,61.88
2022-07-29T23:14:04.159Z,60.90
2022-07-29T23:16:32.003Z,61.42
2022-07-29T23:19:01.116Z,63.43
2022-07-29T23:21:30.834Z,60.40
2022-07-29T23:24:00.925Z,61.04
2022-07-29T23:26:31.426Z,61.58
2022-07-29T23:29:00.802Z,60.43
2022-07-29T23:31:28.471Z,61.68
2022-07-29T23:33:56.184Z,61.81
2022-07-29T23:36:27.848Z,65.34
2022-07-29T23:38:57.409Z,65.29
2022-07-29T23:41:25.326Z,65.95
2022-07-29T23:43:55.667Z,66.16
2022-07-29T23:46:27.426Z,66.96
2022-07-29T23:48:55.492Z,67.41
2022-07-29T23:51:23.214Z,68.45
2022-07-29T23:53:53.785Z,67.40
2022-07-29T23:56:22.018Z,68.81
2022-07-29T23:58:49.777Z,68.50
